Nearby METAR Reports

 

KUCP - New Castle Muni, Pennsylvania, USA
Distance from station: ENE 8mi, 13km
Updated: Sat, 25-Jan-2020 10:42pm EST
Light snow, Mist, Overcast
Light snow, Mist, Overcast
 Wind from SW
Wind: SW 5 mph , 7 km/h
Temperature: 34°F , 1°C
Wind Chill: 29°F , -2°C
Dew Point: 30°F , -1°C
Humidity: 87%
Barometer: 29.86 inHg , 1011.2 hPa
Summary: Light snow, Mist
Clouds: Overcast
Visibility: 3 miles , 5 km
Cloud details: Few Clouds 1000 ft
Mostly cloudy 1300 ft
Overcast 4400 ft
2020/01/26 03:42 KUCP 260342Z AUTO 23004KT 3SM -SN BR FEW010 BKN013 OVC044 01/M01 A2986 RMK AO2 PNO $
KBVI - Beaver Falls Arp, Pennsylvania, USA
Distance from station: SSE 16mi, 26km
Updated: Sat, 25-Jan-2020 10:35pm EST
Light snow, Overcast
Light snow, Overcast
 Wind from WSW
Wind: WSW 8 mph , 13 km/h
Temperature: 34°F , 1°C
Wind Chill: 27°F , -3°C
Dew Point: 32°F , 0°C
Humidity: 93%
Barometer: 29.86 inHg , 1011.2 hPa
Summary: Light Snow
Clouds: Overcast
Visibility: 1 3/4 miles , 2.8 km
Cloud details: Overcast 700 ft
2020/01/26 03:35 KBVI 260335Z AUTO 24007KT 1 3/4SM -SN OVC007 01/00 A2986 RMK AO2 T00090000
 
KYNG - Youngstown, Ohio, USA
Distance from station: NNW 20mi, 33km
Updated: Sat, 25-Jan-2020 10:04pm EST
Light snow, Mist, Overcast
Light snow, Mist, Overcast
 Wind from SW
Wind: SW 10 mph , 17 km/h
Temperature: 34°F , 1°C
Wind Chill: 26°F , -3°C
Dew Point: 30°F , -1°C
Humidity: 87%
Barometer: 29.83 inHg , 1010.2 hPa
Summary: Light snow, Mist
Clouds: Overcast
Visibility: 3 miles , 5 km
Cloud details: Mostly cloudy 800 ft
Mostly cloudy 1600 ft
Overcast 3700 ft
2020/01/26 03:04 KYNG 260304Z 23009KT 3SM -SN BR BKN008 BKN016 OVC037 01/M01 A2983 RMK AO2 P0000 T00061011 $
KBTP - Butler Co., Pennsylvania, USA
Distance from station: ESE 34mi, 55km
Updated: Sat, 25-Jan-2020 10:36pm EST
Light snow, Mist, Overcast
Light snow, Mist, Overcast
 Wind from WSW
Wind: WSW 6 mph , 9 km/h
Temperature: 32°F , 0°C
Wind Chill: 26°F , -3°C
Dew Point: 30°F , -1°C
Humidity: 93%
Barometer: 29.86 inHg , 1011.2 hPa
Summary: Light snow, Mist
Clouds: Overcast
Visibility: 1 1/4 miles , 2 km
Cloud details: Overcast 400 ft
2020/01/26 03:36 KBTP 260336Z AUTO 24005KT 1 1/4SM -SN BR OVC004 00/M01 A2986 RMK AO2 P0004 FZRANO
 
KPIT - Pittsburgh, Pennsylvania, USA
Distance from station: SSE 36mi, 57km
Updated: Sat, 25-Jan-2020 9:51pm EST
Light snow, Mist, Overcast
Light snow, Mist, Overcast
 Wind from SW
Wind: SW 8 mph , 13 km/h
Temperature: 34°F , 1°C
Wind Chill: 27°F , -3°C
Dew Point: 30°F , -1°C
Humidity: 87%
Barometer: 29.86 inHg , 1011.2 hPa
Summary: Light snow, Mist
Clouds: Overcast
Visibility: 4 miles , 6 km
Cloud details: Mostly cloudy 800 ft
Overcast 1400 ft
2020/01/26 02:51 KPIT 260251Z 22007KT 4SM -SN BR BKN008 OVC014 01/M01 A2986 RMK AO2 SLP129 P0001 60001 T00061006 58004
KPOV - Ravena/Portage, Ohio, USA
Distance from station: WNW 40mi, 65km
Updated: Sat, 25-Jan-2020 10:35pm EST
Overcast
Overcast
 Wind from WSW
Wind: WSW 13 mph , 20 km/h, Gust: 16 mph , 26 km/h
Temperature: 32°F , 0°C
Wind Chill: 22°F , -6°C
Dew Point: 30°F , -1°C
Humidity: 93%
Barometer: 29.84 inHg , 1010.5 hPa
Clouds: Overcast
Visibility: 10 miles , 16 km
Cloud details: Mostly cloudy 1000 ft
Overcast 1600 ft
2020/01/26 03:35 KPOV 260335Z AUTO 25011G14KT 10SM BKN010 OVC016 00/M01 A2984 RMK AO2 T00001014 PWINO
 
KFKL - Franklin, Pennsylvania, USA
Distance from station: NE 45mi, 72km
Updated: Sat, 25-Jan-2020 10:19pm EST
Light snow, Mist, Overcast
Light snow, Mist, Overcast
 Wind from WSW
Wind: WSW 12 mph , 19 km/h
Temperature: 30°F , -1°C
Wind Chill: 20°F , -7°C
Dew Point: 30°F , -1°C
Humidity: 100%
Barometer: 29.82 inHg , 1009.8 hPa
Summary: Light snow, Mist
Clouds: Overcast
Visibility: 2 miles , 3 km
Cloud details: Mostly cloudy 600 ft
Overcast 1000 ft
2020/01/26 03:19 KFKL 260319Z AUTO 24010KT 2SM -SN BR BKN006 OVC010 M01/M01 A2982 RMK AO2 CIG 004V008 P0000 FZRANO
KCAK - Akron, Ohio, USA
Distance from station: W 47mi, 76km
Updated: Sat, 25-Jan-2020 10:28pm EST
Light snow, Overcast
Light snow, Overcast
 Wind from W
Wind: W 10 mph , 17 km/h
Temperature: 34°F , 1°C
Wind Chill: 26°F , -3°C
Dew Point: 28°F , -2°C
Humidity: 81%
Barometer: 29.85 inHg , 1010.8 hPa
Summary: Light Snow
Clouds: Overcast
Visibility: 8 miles , 13 km
Cloud details: Mostly cloudy 900 ft
Mostly cloudy 1200 ft
Overcast 2600 ft
2020/01/26 03:28 KCAK 260328Z 26009KT 8SM -SN BKN009 BKN012 OVC026 01/M02 A2985 RMK AO2 P0000 T00061017
 
KAKR - Akron (fulton), Ohio, USA
Distance from station: W 48mi, 77km
Updated: Sat, 25-Jan-2020 9:56pm EST
Overcast
Overcast
 Wind from WSW
Wind: WSW 13 mph , 20 km/h
Temperature: 36°F , 2°C
Wind Chill: 27°F , -3°C
Dew Point: 30°F , -1°C
Humidity: 81%
Barometer: 29.85 inHg , 1010.8 hPa
Clouds: Overcast
Visibility: 9 miles , 14 km
Cloud details: Partly cloudy 1000 ft
Mostly cloudy 1600 ft
Overcast 3700 ft
2020/01/26 02:56 KAKR 260256Z AUTO 25011KT 9SM SCT010 BKN016 OVC037 02/M01 A2985 RMK AO2 T00171011 $
KGKJ - Meadville, Pennsylvania, USA
Distance from station: NNE 49mi, 79km
Updated: Sat, 25-Jan-2020 9:53pm EST
Light snow, Overcast
Light snow, Overcast
 Wind from SW
Wind: SW 7 mph , 11 km/h
Temperature: 32°F , 0°C
Wind Chill: 25°F , -4°C
Dew Point: 30°F , -1°C
Humidity: 93%
Barometer: 29.81 inHg , 1009.5 hPa
Summary: Light Snow
Clouds: Overcast
Visibility: 9 miles , 14 km
Cloud details: Mostly cloudy 600 ft
Mostly cloudy 1300 ft
Overcast 1800 ft
2020/01/26 02:53 KGKJ 260253Z AUTO 23006KT 9SM -SN BKN006 BKN013 OVC018 00/M01 A2981 RMK AO2 SLP105 P0001 60004 T00001011 56004 $